Time;durP1;ratioP1;P1;durP2;ratioP2;P2;SDS_P1;SDS_P2;PMS_P1;PMS_P2;Temp;Humidity;BMP_temperature;BMP_pressure;BME280_temperature;BME280_humidity;BME280_pressure;Samples;Min_cycle;Max_cycle;Signal;HPM_P1;HPM_P2
2022/04/15 00:02:22;;;;;;;28.38;14.95;;;8.10;99.90;;;;;;4989896;28;20034;-85
2022/04/15 00:04:47;;;;;;;22.88;12.65;;;8.10;99.90;;;;;;4991968;28;20026;-86
2022/04/15 00:07:13;;;;;;;30.30;15.27;;;8.10;99.90;;;;;;4991922;28;20030;-86
2022/04/15 00:09:38;;;;;;;32.05;15.95;;;8.20;99.90;;;;;;5023337;28;20386;-86
2022/04/15 00:12:07;;;;;;;27.75;15.63;;;8.20;99.90;;;;;;4990151;28;20022;-86
2022/04/15 00:14:34;;;;;;;26.83;15.05;;;8.20;99.90;;;;;;4992485;28;20019;-86
2022/04/15 00:17:00;;;;;;;30.33;16.38;;;8.20;99.90;;;;;;4985981;28;20092;-85
2022/04/15 00:19:25;;;;;;;29.13;17.30;;;8.30;99.90;;;;;;4990033;28;20080;-86
2022/04/15 00:21:51;;;;;;;27.52;16.17;;;8.30;99.90;;;;;;4991738;28;20023;-86
2022/04/15 00:24:17;;;;;;;32.22;17.52;;;8.30;99.90;;;;;;4992164;28;20031;-86
2022/04/15 00:26:42;;;;;;;28.05;15.40;;;8.30;99.90;;;;;;4987672;28;20081;-86
2022/04/15 00:29:08;;;;;;;33.03;17.65;;;8.30;99.90;;;;;;4987908;28;20911;-86
2022/04/15 00:31:34;;;;;;;34.92;17.75;;;8.30;99.90;;;;;;4985094;28;20030;-86
2022/04/15 00:34:00;;;;;;;29.58;17.27;;;8.30;99.90;;;;;;4996588;28;20498;-86
2022/04/15 00:36:26;;;;;;;33.55;17.98;;;8.30;99.90;;;;;;4990582;28;20062;-86
2022/04/15 00:38:51;;;;;;;26.08;16.80;;;8.30;99.90;;;;;;4990526;28;20569;-86
2022/04/15 00:41:17;;;;;;;36.60;17.17;;;8.30;99.90;;;;;;4989461;28;20510;-86
2022/04/15 00:43:43;;;;;;;29.75;16.88;;;8.30;99.90;;;;;;4988486;28;20517;-86
2022/04/15 00:46:09;;;;;;;27.00;16.02;;;8.20;99.90;;;;;;4988139;28;20139;-86
2022/04/15 00:48:36;;;;;;;31.00;17.63;;;8.20;99.90;;;;;;4991702;28;20026;-86
2022/04/15 00:51:03;;;;;;;31.25;17.35;;;8.30;99.90;;;;;;4984997;28;20701;-85
2022/04/15 00:53:29;;;;;;;34.78;17.05;;;8.20;99.90;;;;;;4990611;28;20106;-86
2022/04/15 00:55:57;;;;;;;28.98;18.20;;;8.20;99.90;;;;;;4991451;28;20030;-86
2022/04/15 00:58:25;;;;;;;30.83;17.13;;;8.20;99.90;;;;;;4990043;28;20391;-85
2022/04/15 01:00:54;;;;;;;33.05;18.00;;;8.20;99.90;;;;;;4985809;28;20050;-86
2022/04/15 01:03:21;;;;;;;31.40;17.65;;;8.20;99.90;;;;;;4993237;28;20026;-86
2022/04/15 01:05:49;;;;;;;35.22;17.98;;;8.10;99.90;;;;;;4990971;28;20023;-85
2022/04/15 01:08:19;;;;;;;28.85;18.15;;;8.10;99.90;;;;;;4991429;28;20410;-86
2022/04/15 01:10:47;;;;;;;27.95;18.02;;;8.10;99.90;;;;;;4992846;28;20054;-86
2022/04/15 01:13:13;;;;;;;28.35;16.77;;;8.10;99.90;;;;;;4990252;28;20066;-87
2022/04/15 01:15:39;;;;;;;30.20;17.63;;;8.00;99.90;;;;;;5002400;28;20499;-86
2022/04/15 01:18:05;;;;;;;33.85;18.17;;;8.00;99.90;;;;;;4989089;28;21393;-86
2022/04/15 01:20:32;;;;;;;30.52;16.80;;;7.90;99.90;;;;;;4992138;28;20023;-86
2022/04/15 01:23:03;;;;;;;30.05;17.67;;;7.90;99.90;;;;;;4989676;28;20037;-86
2022/04/15 01:25:29;;;;;;;35.13;19.83;;;7.90;99.90;;;;;;5003908;28;20032;-86
2022/04/15 01:27:57;;;;;;;30.02;18.70;;;7.80;99.90;;;;;;4991315;28;20026;-86
2022/04/15 01:30:23;;;;;;;34.65;19.08;;;7.80;99.90;;;;;;4986827;28;20037;-86
2022/04/15 01:32:49;;;;;;;33.97;20.33;;;7.70;99.90;;;;;;4985047;28;20031;-86
2022/04/15 01:35:17;;;;;;;32.42;19.60;;;7.70;99.90;;;;;;4993698;28;20039;-86
2022/04/15 01:37:44;;;;;;;29.42;18.65;;;7.70;99.90;;;;;;4991215;28;20042;-85
2022/04/15 01:40:11;;;;;;;30.17;17.85;;;7.60;99.90;;;;;;4990801;28;20482;-86
2022/04/15 01:42:38;;;;;;;30.50;18.27;;;7.60;99.90;;;;;;4992205;28;20042;-86
2022/04/15 01:45:05;;;;;;;30.23;20.23;;;7.60;99.90;;;;;;4990222;28;20024;-86
2022/04/15 01:47:32;;;;;;;35.58;19.23;;;7.50;99.90;;;;;;4989471;28;20058;-86
2022/04/15 01:49:58;;;;;;;31.40;19.20;;;7.50;99.90;;;;;;4988569;28;20034;-86
2022/04/15 01:52:24;;;;;;;32.45;19.40;;;7.50;99.90;;;;;;4989414;28;20034;-86
2022/04/15 01:54:49;;;;;;;35.03;19.83;;;7.50;99.90;;;;;;4986702;28;20046;-86
2022/04/15 01:57:16;;;;;;;34.40;18.98;;;7.40;99.90;;;;;;4993968;28;20487;-86
2022/04/15 01:59:42;;;;;;;31.92;18.58;;;7.40;99.90;;;;;;4996900;28;20053;-85
2022/04/15 02:02:08;;;;;;;31.20;18.80;;;7.40;99.90;;;;;;4987840;28;20544;-86
2022/04/15 02:04:34;;;;;;;36.00;18.98;;;7.40;99.90;;;;;;5009427;28;20109;-85
2022/04/15 02:07:00;;;;;;;31.42;19.70;;;7.30;99.90;;;;;;4992937;28;20033;-86
2022/04/15 02:09:25;;;;;;;32.80;19.50;;;7.30;99.90;;;;;;5011271;28;20707;-86
2022/04/15 02:11:51;;;;;;;30.52;18.85;;;7.30;99.90;;;;;;5014453;28;20163;-86
2022/04/15 02:14:18;;;;;;;33.80;19.67;;;7.30;99.90;;;;;;4983789;28;20034;-86
2022/04/15 02:16:44;;;;;;;37.30;20.75;;;7.30;99.90;;;;;;4992545;28;20464;-87
2022/04/15 02:19:10;;;;;;;33.65;20.77;;;7.20;99.90;;;;;;4995361;28;20034;-86
2022/04/15 02:21:35;;;;;;;33.88;21.25;;;7.20;99.90;;;;;;5012626;28;20387;-86
2022/04/15 02:24:01;;;;;;;31.95;21.05;;;7.20;99.90;;;;;;4989701;28;20121;-86
2022/04/15 02:26:27;;;;;;;35.67;21.52;;;7.20;99.90;;;;;;4997977;28;20022;-86
2022/04/15 02:28:53;;;;;;;42.85;21.23;;;7.20;99.90;;;;;;4995827;28;20030;-87
2022/04/15 02:31:18;;;;;;;71.38;22.90;;;7.20;99.90;;;;;;4993007;28;20034;-87
2022/04/15 02:33:44;;;;;;;54.03;23.15;;;7.20;99.90;;;;;;4994696;28;20056;-86
2022/04/15 02:36:10;;;;;;;104.07;23.67;;;7.20;99.90;;;;;;5001377;28;20033;-87
2022/04/15 02:38:36;;;;;;;59.42;22.85;;;7.30;99.90;;;;;;4994090;28;20040;-86
2022/04/15 02:41:03;;;;;;;56.83;22.52;;;7.30;99.90;;;;;;5001703;28;20026;-86
2022/04/15 02:43:33;;;;;;;62.13;22.55;;;7.40;99.90;;;;;;4995464;28;20025;-87
2022/04/15 02:46:00;;;;;;;41.75;22.17;;;7.40;99.90;;;;;;5001246;28;20033;-86
2022/04/15 02:48:26;;;;;;;33.95;20.85;;;7.40;99.90;;;;;;5002442;28;20112;-86
2022/04/15 02:50:52;;;;;;;43.38;23.08;;;7.50;99.90;;;;;;5005296;28;20025;-87
2022/04/15 02:53:17;;;;;;;55.15;23.30;;;7.50;99.90;;;;;;5007090;28;20120;-87
2022/04/15 02:55:43;;;;;;;45.88;23.00;;;7.60;99.90;;;;;;4998834;28;20113;-88
2022/04/15 02:58:08;;;;;;;36.83;21.55;;;7.60;99.90;;;;;;4997167;28;20034;-87
2022/04/15 03:00:34;;;;;;;41.60;23.52;;;7.70;99.90;;;;;;4997575;28;20042;-86
2022/04/15 03:03:00;;;;;;;35.30;21.98;;;7.70;99.90;;;;;;4984678;28;20030;-87
2022/04/15 03:05:25;;;;;;;37.05;21.05;;;7.70;99.90;;;;;;4995269;28;20105;-87
2022/04/15 03:07:51;;;;;;;32.25;19.48;;;7.70;99.90;;;;;;4998343;28;20033;-85
2022/04/15 03:10:16;;;;;;;48.45;18.02;;;7.70;99.90;;;;;;5001487;28;20159;-87
2022/04/15 03:12:42;;;;;;;35.35;18.70;;;7.70;99.90;;;;;;4996463;28;20391;-86
2022/04/15 03:15:10;;;;;;;55.90;19.88;;;7.60;99.90;;;;;;5002847;28;20029;-86
2022/04/15 03:17:36;;;;;;;31.67;18.20;;;7.60;99.90;;;;;;4998674;28;20100;-86
2022/04/15 03:20:03;;;;;;;42.92;19.73;;;7.60;99.90;;;;;;4989251;28;20501;-87
2022/04/15 03:22:30;;;;;;;40.75;20.17;;;7.60;99.90;;;;;;4999852;28;20128;-87
2022/04/15 03:24:55;;;;;;;39.45;19.60;;;7.60;99.90;;;;;;5016655;28;20034;-87
2022/04/15 03:27:21;;;;;;;35.53;19.90;;;7.60;99.90;;;;;;4998165;28;20535;-87
2022/04/15 03:29:46;;;;;;;33.30;19.02;;;7.60;99.90;;;;;;4997105;28;20513;-87
2022/04/15 03:32:12;;;;;;;30.55;18.27;;;7.60;99.90;;;;;;4997144;28;20029;-87
2022/04/15 03:34:38;;;;;;;42.83;19.75;;;7.60;99.90;;;;;;4995418;28;20014;-86
2022/04/15 03:37:04;;;;;;;39.85;20.17;;;7.60;99.90;;;;;;4995482;28;20034;-87
2022/04/15 03:39:30;;;;;;;41.72;18.73;;;7.60;99.90;;;;;;5004417;28;20041;-85
2022/04/15 03:41:55;;;;;;;39.67;20.63;;;7.60;99.90;;;;;;5008519;28;20366;-87
2022/04/15 03:44:22;;;;;;;36.72;19.50;;;7.60;99.90;;;;;;4996210;28;20049;-86
2022/04/15 03:46:47;;;;;;;30.13;18.58;;;7.60;99.90;;;;;;5002170;28;20505;-86
2022/04/15 03:49:13;;;;;;;32.13;17.38;;;7.60;99.90;;;;;;4996189;28;20030;-86
2022/04/15 03:51:38;;;;;;;31.10;19.38;;;7.60;99.90;;;;;;4997084;28;20030;-86
2022/04/15 03:54:04;;;;;;;33.72;19.33;;;7.60;99.90;;;;;;4998693;28;20032;-87
2022/04/15 03:56:30;;;;;;;29.88;20.13;;;7.60;99.90;;;;;;4995207;28;20474;-87
2022/04/15 03:58:56;;;;;;;31.27;17.45;;;7.60;99.90;;;;;;4989953;28;20104;-86
2022/04/15 04:01:22;;;;;;;33.38;20.20;;;7.60;99.90;;;;;;4995176;28;20089;-86
2022/04/15 04:03:47;;;;;;;36.72;21.05;;;7.70;99.90;;;;;;4993501;28;20489;-86
2022/04/15 04:06:13;;;;;;;30.33;16.92;;;7.70;99.90;;;;;;4992617;28;20026;-86
2022/04/15 04:08:39;;;;;;;35.00;20.20;;;7.70;99.90;;;;;;4998030;28;20115;-86
2022/04/15 04:11:04;;;;;;;38.92;20.60;;;7.80;99.90;;;;;;4994575;28;20044;-87
2022/04/15 04:13:29;;;;;;;42.05;21.42;;;7.80;99.90;;;;;;4996171;28;20029;-86
2022/04/15 04:15:55;;;;;;;38.50;20.63;;;7.80;99.90;;;;;;4995821;28;20033;-86
2022/04/15 04:18:21;;;;;;;36.47;20.33;;;7.80;99.90;;;;;;4996539;28;20107;-86
2022/04/15 04:20:48;;;;;;;50.22;21.77;;;7.80;99.90;;;;;;4996180;28;20018;-86
2022/04/15 04:23:13;;;;;;;34.65;18.42;;;7.80;99.90;;;;;;4992508;28;20049;-87
2022/04/15 04:25:39;;;;;;;45.00;21.17;;;7.80;99.90;;;;;;4988912;28;20057;-86
2022/04/15 04:28:04;;;;;;;42.17;20.38;;;7.90;99.90;;;;;;4996623;28;20059;-87
2022/04/15 04:30:30;;;;;;;38.95;21.05;;;7.90;99.90;;;;;;4994490;28;20372;-87
2022/04/15 04:32:58;;;;;;;37.97;19.70;;;7.90;99.90;;;;;;4997071;28;20072;-87
2022/04/15 04:35:23;;;;;;;40.08;21.70;;;7.90;99.90;;;;;;4993268;28;20066;-87
2022/04/15 04:37:49;;;;;;;41.85;21.50;;;8.00;99.90;;;;;;4996100;28;20041;-87
2022/04/15 04:40:15;;;;;;;42.90;22.55;;;8.00;99.90;;;;;;4999220;28;20049;-86
2022/04/15 04:42:42;;;;;;;42.30;21.52;;;8.00;99.90;;;;;;4989942;28;20060;-87
2022/04/15 04:45:10;;;;;;;41.08;20.90;;;8.00;99.90;;;;;;5011039;28;20026;-87
2022/04/15 04:47:37;;;;;;;39.53;20.38;;;8.00;99.90;;;;;;4995404;28;20026;-86
2022/04/15 04:50:04;;;;;;;38.25;22.67;;;8.10;99.90;;;;;;4996726;28;20075;-86
2022/04/15 04:52:29;;;;;;;36.75;19.98;;;8.10;99.90;;;;;;5012862;28;20117;-86
2022/04/15 04:54:55;;;;;;;39.90;21.88;;;8.20;99.90;;;;;;5018538;28;20135;-87
2022/04/15 04:57:21;;;;;;;43.25;22.17;;;8.20;99.90;;;;;;4999521;28;20046;-87
2022/04/15 04:59:46;;;;;;;40.08;20.42;;;8.20;99.90;;;;;;4996233;28;20060;-86
2022/04/15 05:02:12;;;;;;;38.08;19.70;;;8.30;99.90;;;;;;5000066;28;20120;-86
2022/04/15 05:04:39;;;;;;;43.95;22.00;;;8.20;99.90;;;;;;5004464;28;20021;-86
2022/04/15 05:07:05;;;;;;;40.75;21.23;;;8.20;99.90;;;;;;5012349;28;20035;-87
2022/04/15 05:09:30;;;;;;;42.78;22.17;;;8.20;99.90;;;;;;5003511;28;20112;-86
2022/04/15 05:11:56;;;;;;;38.88;20.55;;;8.20;99.90;;;;;;5013935;28;20095;-86
2022/04/15 05:14:21;;;;;;;43.35;23.05;;;8.20;99.90;;;;;;4991586;28;20026;-86
2022/04/15 05:16:47;;;;;;;40.38;20.55;;;8.20;99.90;;;;;;4983627;28;20521;-86
2022/04/15 05:19:13;;;;;;;41.72;21.60;;;8.20;99.90;;;;;;5001332;28;20030;-87
2022/04/15 05:21:39;;;;;;;40.47;21.42;;;8.30;99.90;;;;;;4998633;28;20104;-86
2022/04/15 05:24:07;;;;;;;41.42;20.92;;;8.30;99.90;;;;;;5003036;28;20030;-86
2022/04/15 05:26:33;;;;;;;41.63;21.48;;;8.30;99.90;;;;;;5009534;28;20104;-87
2022/04/15 05:28:59;;;;;;;37.95;19.33;;;8.30;99.90;;;;;;5011070;28;20537;-86
2022/04/15 05:31:25;;;;;;;38.78;18.95;;;8.40;99.90;;;;;;5009135;28;20101;-87
2022/04/15 05:33:51;;;;;;;33.92;18.77;;;8.40;99.90;;;;;;4991574;28;20117;-87
2022/04/15 05:36:16;;;;;;;31.75;16.20;;;8.50;99.90;;;;;;4994090;28;20018;-87
2022/04/15 05:38:42;;;;;;;26.33;14.68;;;8.50;99.90;;;;;;4991605;28;20453;-85
2022/04/15 05:41:07;;;;;;;23.80;14.85;;;8.50;99.90;;;;;;4995730;28;20018;-87
2022/04/15 05:43:33;;;;;;;22.23;13.65;;;8.50;99.90;;;;;;4995075;28;20389;-86
2022/04/15 05:45:59;;;;;;;26.85;15.18;;;8.50;99.90;;;;;;4999132;28;20041;-86
2022/04/15 05:48:24;;;;;;;22.45;13.40;;;8.60;99.90;;;;;;5003502;28;20466;-86
2022/04/15 05:50:50;;;;;;;30.30;14.60;;;8.60;99.90;;;;;;4999660;28;20026;-87
2022/04/15 05:53:16;;;;;;;18.10;12.55;;;8.70;99.90;;;;;;4995271;28;20025;-87
2022/04/15 05:55:41;;;;;;;19.92;12.63;;;8.80;99.90;;;;;;4993891;28;20110;-86
2022/04/15 05:58:10;;;;;;;20.00;11.00;;;9.00;99.90;;;;;;4998173;28;20136;-86
2022/04/15 06:00:36;;;;;;;18.83;10.98;;;9.10;99.90;;;;;;5000865;28;20037;-86
2022/04/15 06:03:02;;;;;;;15.98;10.18;;;9.20;99.90;;;;;;4985109;28;20038;-87
2022/04/15 06:05:27;;;;;;;12.50;8.80;;;9.40;99.90;;;;;;4992111;28;20118;-87
2022/04/15 06:07:53;;;;;;;17.15;8.13;;;9.50;99.90;;;;;;5007976;28;20037;-86
2022/04/15 06:10:19;;;;;;;12.60;8.27;;;9.50;99.90;;;;;;5006456;28;20024;-86
2022/04/15 06:13:04;;;;;;;15.85;7.53;;;9.60;99.90;;;;;;4991294;28;20026;-85
2022/04/15 06:15:33;;;;;;;12.68;7.53;;;9.60;99.90;;;;;;5001860;28;20028;-86
2022/04/15 06:18:00;;;;;;;9.90;6.10;;;9.50;99.90;;;;;;4998969;28;20042;-85
2022/04/15 06:20:27;;;;;;;11.98;6.18;;;9.40;99.90;;;;;;4992555;28;20068;-86
2022/04/15 06:22:52;;;;;;;9.93;6.63;;;9.40;99.90;;;;;;4997019;28;20057;-88
2022/04/15 06:25:18;;;;;;;11.68;5.93;;;9.30;99.90;;;;;;4997563;28;20065;-86
2022/04/15 06:27:44;;;;;;;7.97;5.05;;;9.20;99.90;;;;;;4996989;28;20034;-87
2022/04/15 06:30:09;;;;;;;10.95;5.97;;;9.30;99.90;;;;;;4997718;28;20056;-88
2022/04/15 06:32:36;;;;;;;5.97;4.60;;;9.30;99.90;;;;;;4996220;28;20033;-87
2022/04/15 06:35:02;;;;;;;9.32;5.18;;;9.40;99.90;;;;;;4997100;28;20121;-87
2022/04/15 06:37:28;;;;;;;10.70;5.90;;;9.40;99.90;;;;;;4998727;28;20118;-86
2022/04/15 06:39:53;;;;;;;9.20;4.88;;;9.50;99.90;;;;;;4998299;28;20029;-86
2022/04/15 06:42:27;;;;;;;9.48;4.70;;;9.60;99.90;;;;;;4997165;28;20083;-87
2022/04/15 06:44:53;;;;;;;9.75;5.35;;;9.60;99.90;;;;;;4984968;28;20033;-85
2022/04/15 06:47:19;;;;;;;13.32;5.78;;;9.70;99.90;;;;;;4995480;28;20033;-87
2022/04/15 06:49:46;;;;;;;8.57;4.65;;;9.70;99.90;;;;;;5006044;28;20025;-87
2022/04/15 06:52:15;;;;;;;10.40;5.03;;;9.80;99.90;;;;;;4996203;28;20030;-87
2022/04/15 06:54:40;;;;;;;9.13;5.38;;;9.80;99.90;;;;;;4996561;28;20026;-86
2022/04/15 06:57:06;;;;;;;7.32;4.85;;;10.00;99.90;;;;;;4998557;28;20040;-86
2022/04/15 06:59:32;;;;;;;8.70;4.60;;;10.10;99.90;;;;;;4996811;28;20560;-87
2022/04/15 07:02:01;;;;;;;6.85;4.35;;;10.20;99.90;;;;;;4996381;28;20072;-86
2022/04/15 07:04:27;;;;;;;8.68;4.45;;;10.30;99.90;;;;;;4994095;28;20022;-86
2022/04/15 07:06:54;;;;;;;4.72;3.60;;;10.40;99.90;;;;;;4998291;28;20500;-86
2022/04/15 07:09:19;;;;;;;6.82;3.75;;;10.40;99.90;;;;;;5014206;28;20034;-85
2022/04/15 07:11:45;;;;;;;4.72;2.95;;;10.40;99.90;;;;;;5014492;28;20037;-86
2022/04/15 07:14:10;;;;;;;3.55;2.53;;;10.50;99.90;;;;;;5012604;28;20545;-86
2022/04/15 07:16:36;;;;;;;5.45;3.22;;;10.50;99.90;;;;;;4996660;28;20474;-87
2022/04/15 07:19:04;;;;;;;7.40;3.58;;;10.60;99.90;;;;;;5001450;28;20433;-87
2022/04/15 07:21:31;;;;;;;6.45;3.10;;;10.60;99.90;;;;;;4994190;28;20044;-87
2022/04/15 07:23:57;;;;;;;6.22;3.33;;;10.70;99.90;;;;;;5020998;28;20025;-87
2022/04/15 07:26:22;;;;;;;5.22;3.08;;;10.80;99.90;;;;;;5022569;28;20025;-87
2022/04/15 07:28:48;;;;;;;4.13;2.65;;;10.90;99.90;;;;;;4997546;28;20022;-87
2022/04/15 07:31:13;;;;;;;4.18;2.60;;;10.90;99.90;;;;;;4995667;28;20065;-87
2022/04/15 07:33:39;;;;;;;5.30;2.78;;;10.90;99.90;;;;;;4996295;28;20498;-88
2022/04/15 07:36:31;;;;;;;3.78;2.50;;;11.00;99.90;;;;;;5004044;28;20029;-87
2022/04/15 07:38:50;;;;;;;4.72;2.08;;;11.00;99.90;;;;;;5014169;28;20038;-87
2022/04/15 07:41:16;;;;;;;3.83;1.90;;;11.00;99.90;;;;;;5000323;28;20033;-87
2022/04/15 07:43:42;;;;;;;5.03;2.10;;;11.10;99.90;;;;;;5000821;28;20030;-87
2022/04/15 07:46:08;;;;;;;4.28;2.13;;;11.20;99.90;;;;;;4999805;28;20026;-86
2022/04/15 07:48:33;;;;;;;8.23;2.78;;;11.30;99.90;;;;;;5002701;28;20045;-87
2022/04/15 07:50:59;;;;;;;5.53;2.42;;;11.30;99.90;;;;;;4992871;28;20112;-86
2022/04/15 07:53:24;;;;;;;5.00;2.00;;;11.30;99.90;;;;;;5001044;28;20041;-87
2022/04/15 07:55:50;;;;;;;4.10;2.10;;;11.40;99.90;;;;;;4992727;28;20030;-86
2022/04/15 07:58:15;;;;;;;3.80;2.65;;;11.50;99.90;;;;;;5005221;28;20045;-87
2022/04/15 08:00:42;;;;;;;3.47;2.58;;;11.60;99.90;;;;;;4992699;28;20034;-87
2022/04/15 08:03:08;;;;;;;6.85;3.63;;;11.60;99.90;;;;;;4993039;28;20040;-87
2022/04/15 08:05:34;;;;;;;4.57;2.88;;;11.60;99.90;;;;;;4994737;28;20109;-87
2022/04/15 08:07:59;;;;;;;6.10;2.03;;;11.60;99.90;;;;;;5012376;28;20056;-87
2022/04/15 08:10:25;;;;;;;3.65;2.25;;;11.50;99.90;;;;;;4998295;28;20532;-87
2022/04/15 08:12:51;;;;;;;2.78;1.48;;;11.50;99.90;;;;;;5002948;28;20025;-88
2022/04/15 08:15:16;;;;;;;4.25;1.83;;;11.50;99.90;;;;;;4997135;28;20022;-87
2022/04/15 08:17:42;;;;;;;3.10;1.80;;;11.50;99.90;;;;;;4996518;28;20034;-86
2022/04/15 08:20:07;;;;;;;4.53;1.65;;;11.60;99.90;;;;;;4996723;28;20046;-87
2022/04/15 08:22:35;;;;;;;3.92;1.75;;;11.80;99.90;;;;;;4996527;28;20033;-87
2022/04/15 08:25:01;;;;;;;2.85;1.30;;;11.90;99.90;;;;;;4995762;28;20382;-88
2022/04/15 08:27:27;;;;;;;3.58;1.83;;;12.00;99.90;;;;;;4996138;28;20057;-87
2022/04/15 08:29:53;;;;;;;4.28;1.60;;;12.10;99.90;;;;;;4993281;28;20033;-87
2022/04/15 08:32:20;;;;;;;4.32;1.48;;;12.10;99.90;;;;;;4996415;28;20022;-87
2022/04/15 08:34:45;;;;;;;4.50;2.10;;;12.10;99.90;;;;;;4996306;28;20032;-87
2022/04/15 08:37:12;;;;;;;4.68;2.17;;;12.10;99.90;;;;;;4996217;28;20029;-87
2022/04/15 08:39:38;;;;;;;5.20;1.85;;;12.20;99.90;;;;;;4995396;28;20482;-87
2022/04/15 08:42:07;;;;;;;2.75;1.80;;;12.20;99.90;;;;;;5012527;28;20069;-87
2022/04/15 08:44:33;;;;;;;3.03;1.55;;;12.20;99.90;;;;;;4994954;28;20478;-86
2022/04/15 08:47:02;;;;;;;4.32;1.77;;;12.30;99.90;;;;;;4994245;28;20037;-87
2022/04/15 08:49:28;;;;;;;2.50;1.10;;;12.30;99.90;;;;;;4996053;28;20022;-87
2022/04/15 08:51:54;;;;;;;3.60;0.98;;;12.30;99.90;;;;;;4995673;28;20113;-87
2022/04/15 08:54:20;;;;;;;3.72;1.45;;;12.40;99.90;;;;;;4995870;28;20426;-87
2022/04/15 08:56:46;;;;;;;3.97;1.52;;;12.30;99.90;;;;;;4994726;28;20083;-87
2022/04/15 08:59:12;;;;;;;4.13;1.45;;;12.40;99.90;;;;;;4993518;28;20033;-87
2022/04/15 09:01:37;;;;;;;4.60;1.17;;;12.40;99.90;;;;;;4994552;28;20117;-87
2022/04/15 09:04:03;;;;;;;5.30;1.67;;;12.40;99.90;;;;;;4994468;28;20029;-86
2022/04/15 09:06:31;;;;;;;2.50;0.80;;;12.30;99.90;;;;;;4996040;28;20022;-86
2022/04/15 09:09:00;;;;;;;3.15;0.90;;;12.30;99.90;;;;;;4994338;28;20175;-87
2022/04/15 09:11:34;;;;;;;4.63;1.20;;;12.40;99.90;;;;;;4996366;28;20108;-87
2022/04/15 09:14:03;;;;;;;4.03;0.93;;;12.40;99.90;;;;;;5004437;28;20434;-87
2022/04/15 09:16:30;;;;;;;2.25;0.70;;;12.40;99.90;;;;;;4992037;28;20026;-85
2022/04/15 09:18:56;;;;;;;1.95;0.68;;;12.30;99.90;;;;;;4994627;28;20136;-88
2022/04/15 09:21:26;;;;;;;3.35;0.90;;;12.20;99.90;;;;;;4995205;28;20161;-87
2022/04/15 09:23:53;;;;;;;2.10;0.80;;;12.20;99.90;;;;;;4994332;28;20076;-87
2022/04/15 09:26:20;;;;;;;2.80;1.17;;;12.20;99.90;;;;;;4995365;28;20054;-87
2022/04/15 09:28:47;;;;;;;3.00;0.70;;;12.20;99.90;;;;;;5012945;28;20030;-87
2022/04/15 09:31:15;;;;;;;2.47;0.77;;;12.10;99.90;;;;;;4991675;28;20409;-87
2022/04/15 09:34:00;;;;;;;1.65;0.88;;;12.10;99.90;;;;;;4995359;28;20089;-86
2022/04/15 09:36:31;;;;;;;2.85;0.95;;;12.10;99.90;;;;;;5004646;28;20037;-86
2022/04/15 09:39:10;;;;;;;2.58;0.98;;;12.10;99.90;;;;;;4993687;28;20041;-86
2022/04/15 09:41:50;;;;;;;6.53;1.75;;;12.00;99.90;;;;;;5010979;28;20018;-86
2022/04/15 09:44:16;;;;;;;3.38;1.13;;;12.00;99.90;;;;;;4987208;28;20661;-87
2022/04/15 09:46:44;;;;;;;4.13;1.33;;;11.90;99.90;;;;;;5010921;28;20134;-87
2022/04/15 09:49:10;;;;;;;4.20;0.95;;;11.90;99.90;;;;;;4997509;28;20025;-87
2022/04/15 09:51:56;;;;;;;6.32;1.00;;;11.90;99.90;;;;;;5016368;28;20532;-87
2022/04/15 09:54:30;;;;;;;3.95;1.08;;;12.10;99.90;;;;;;4998470;28;20095;-86
2022/04/15 09:56:57;;;;;;;2.38;0.90;;;12.00;99.90;;;;;;5016014;28;20494;-87
2022/04/15 09:59:25;;;;;;;5.07;1.20;;;12.10;99.90;;;;;;4998850;28;20549;-86
2022/04/15 10:01:56;;;;;;;3.38;1.05;;;12.00;99.90;;;;;;4997584;28;20084;-86
2022/04/15 10:04:25;;;;;;;2.40;1.00;;;12.10;99.90;;;;;;4997876;28;20550;-87
2022/04/15 10:06:52;;;;;;;4.00;1.48;;;12.20;99.90;;;;;;4998781;28;20037;-87
2022/04/15 10:09:18;;;;;;;3.00;0.70;;;12.30;99.90;;;;;;4999910;28;20114;-87
2022/04/15 10:11:46;;;;;;;2.33;0.80;;;12.40;99.90;;;;;;5014240;28;20034;-88
2022/04/15 10:14:14;;;;;;;1.70;0.90;;;12.40;99.90;;;;;;4999327;28;20508;-87
2022/04/15 10:16:42;;;;;;;2.85;0.90;;;12.40;99.90;;;;;;4998539;28;20029;-87
2022/04/15 10:19:08;;;;;;;2.95;0.80;;;12.50;99.90;;;;;;5006310;28;20048;-87
2022/04/15 10:21:37;;;;;;;4.05;1.20;;;12.50;99.90;;;;;;4993659;28;20026;-87
2022/04/15 10:24:04;;;;;;;5.55;1.10;;;12.60;99.90;;;;;;4998114;28;20025;-87
2022/04/15 10:26:34;;;;;;;2.47;0.80;;;12.60;99.90;;;;;;5015094;28;20068;-87
2022/04/15 10:29:03;;;;;;;3.67;1.25;;;12.90;99.90;;;;;;5015534;28;20485;-87
2022/04/15 10:31:43;;;;;;;1.77;0.88;;;13.10;99.90;;;;;;5013645;28;20029;-87
2022/04/15 10:34:11;;;;;;;6.05;1.30;;;13.10;99.90;;;;;;5013339;28;20029;-85
2022/04/15 10:36:38;;;;;;;3.72;1.30;;;13.00;99.90;;;;;;4998046;28;20030;-86
2022/04/15 10:39:03;;;;;;;5.32;1.55;;;12.90;99.90;;;;;;4997354;28;20085;-85
2022/04/15 10:41:41;;;;;;;4.95;1.10;;;12.90;99.90;;;;;;4997280;28;20049;-86
2022/04/15 10:44:14;;;;;;;4.15;1.23;;;13.00;99.90;;;;;;5005126;28;20036;-85
2022/04/15 10:46:40;;;;;;;3.25;1.35;;;12.90;99.90;;;;;;4996192;28;20109;-85
2022/04/15 10:49:23;;;;;;;4.07;1.05;;;12.90;99.90;;;;;;4998584;28;20026;-86
2022/04/15 10:52:00;;;;;;;3.70;1.38;;;12.80;99.90;;;;;;4996510;28;20116;-86
2022/04/15 10:54:35;;;;;;;3.17;1.00;;;12.60;99.90;;;;;;4996774;28;20022;-88
2022/04/15 10:57:14;;;;;;;3.95;1.48;;;12.50;99.90;;;;;;4995126;28;20111;-88
2022/04/15 11:02:43;;;;;;;5.07;1.50;;;12.70;99.90;;;;;;5014054;28;20028;-85
2022/04/15 11:05:11;;;;;;;4.13;1.23;;;12.60;99.90;;;;;;4996621;28;20457;-88
2022/04/15 11:07:49;;;;;;;4.18;1.45;;;12.60;99.90;;;;;;5014961;28;20029;-87
2022/04/15 11:10:47;;;;;;;4.53;1.80;;;12.60;99.90;;;;;;4997712;28;20493;-87
2022/04/15 11:13:34;;;;;;;3.70;1.42;;;12.60;99.90;;;;;;4996277;28;20054;-88
2022/04/15 11:18:56;;;;;;;3.97;1.42;;;12.80;99.90;;;;;;5016009;28;20068;-88
2022/04/15 11:21:39;;;;;;;3.78;1.70;;;12.80;99.90;;;;;;4996543;28;20030;-87
2022/04/15 11:24:09;;;;;;;5.10;1.65;;;12.90;99.90;;;;;;4996161;28;20033;-88
2022/04/15 11:26:44;;;;;;;3.03;1.50;;;12.90;99.90;;;;;;5015426;28;20026;-87
2022/04/15 11:29:12;;;;;;;3.60;1.65;;;12.80;99.90;;;;;;5014247;28;20034;-88
2022/04/15 11:31:39;;;;;;;4.28;2.20;;;12.90;99.90;;;;;;4998005;28;20029;-87
2022/04/15 11:34:10;;;;;;;4.13;1.58;;;12.90;99.90;;;;;;4996917;28;20071;-88
2022/04/15 11:36:38;;;;;;;3.38;1.48;;;13.00;99.90;;;;;;4997614;28;20059;-88
2022/04/15 11:39:06;;;;;;;2.42;1.38;;;13.10;99.90;;;;;;4996541;28;20152;-87
2022/04/15 11:41:32;;;;;;;5.57;1.85;;;13.20;99.90;;;;;;4997114;28;20076;-87
2022/04/15 11:44:02;;;;;;;4.07;1.90;;;13.30;99.90;;;;;;4989955;28;20120;-88
2022/04/15 11:46:39;;;;;;;3.85;1.85;;;13.40;99.90;;;;;;4993254;28;20026;-87
2022/04/15 11:49:21;;;;;;;4.35;1.85;;;13.30;99.90;;;;;;4991358;28;20029;-88
2022/04/15 11:51:48;;;;;;;;;;;13.40;99.90;;;;;;5014697;28;20026;-87
2022/04/15 11:54:14;;;;;;;4.95;2.30;;;13.30;99.90;;;;;;5007816;28;19909;-87
2022/04/15 11:56:42;;;;;;;5.53;1.88;;;13.20;99.90;;;;;;5014356;28;20420;-86
2022/04/15 11:59:09;;;;;;;6.03;2.13;;;13.10;99.90;;;;;;4997106;28;20115;-87
2022/04/15 12:01:36;;;;;;;3.80;1.55;;;13.10;99.90;;;;;;5014903;28;20107;-87
2022/04/15 12:04:03;;;;;;;5.63;1.83;;;13.10;99.90;;;;;;4993958;28;20034;-87
2022/04/15 12:06:32;;;;;;;4.40;2.28;;;13.20;99.90;;;;;;5011606;28;20033;-87
2022/04/15 12:08:58;;;;;;;3.55;1.80;;;13.30;99.90;;;;;;5009324;28;20033;-88
2022/04/15 12:11:25;;;;;;;5.22;1.85;;;13.30;99.90;;;;;;5005072;28;20033;-87
2022/04/15 12:13:59;;;;;;;4.28;1.58;;;13.30;99.90;;;;;;5014384;28;20084;-88
2022/04/15 12:16:27;;;;;;;7.18;2.17;;;13.40;99.90;;;;;;5013048;28;20056;-87
2022/04/15 12:18:53;;;;;;;5.20;2.25;;;13.40;99.90;;;;;;5012506;28;20038;-87
2022/04/15 12:21:20;;;;;;;3.75;2.33;;;13.50;99.90;;;;;;4993377;28;20029;-87
2022/04/15 12:23:59;;;;;;;6.00;3.10;;;13.50;99.40;;;;;;4995516;28;20030;-87
2022/04/15 12:26:25;;;;;;;5.05;2.47;;;13.40;99.30;;;;;;4997288;28;20026;-87
2022/04/15 12:31:34;;;;;;;5.07;2.83;;;13.30;99.70;;;;;;5013146;28;20040;-87
2022/04/15 12:34:01;;;;;;;4.30;2.42;;;13.30;99.90;;;;;;5005385;28;20033;-87
2022/04/15 12:36:45;;;;;;;4.15;2.08;;;13.20;99.90;;;;;;4994964;28;20050;-87
2022/04/15 12:39:11;;;;;;;5.72;3.00;;;13.20;99.90;;;;;;5010639;28;20129;-86
2022/04/15 12:41:46;;;;;;;6.13;3.80;;;13.10;99.80;;;;;;4995723;28;20493;-87
2022/04/15 12:44:19;;;;;;;5.97;3.22;;;13.10;99.90;;;;;;4983995;28;20074;-86
2022/04/15 12:46:47;;;;;;;5.10;3.65;;;13.10;99.90;;;;;;4995710;28;20029;-86
2022/04/15 12:49:45;;;;;;;6.53;4.25;;;13.10;99.90;;;;;;4994578;28;20084;-86
2022/04/15 12:52:16;;;;;;;6.97;4.00;;;13.10;99.90;;;;;;4972880;28;20061;-87
2022/04/15 12:55:05;;;;;;;4.93;3.83;;;13.00;99.90;;;;;;5007986;28;20092;-88